Time;durP1;ratioP1;P1;durP2;ratioP2;P2;SDS_P1;SDS_P2;PMS_P1;PMS_P2;Temp;Humidity;BMP_temperature;BMP_pressure;BME280_temperature;BME280_humidity;BME280_pressure;Samples;Min_cycle;Max_cycle;Signal;HPM_P1;HPM_P2
2021/12/02 00:00:17;;;;;;;5.40;1.05;;;3.80;99.90;;;;;;2125571;67;20871;-72
2021/12/02 00:03:04;;;;;;;4.70;1.00;;;3.70;99.90;;;;;;2110911;67;20225;-71
2021/12/02 00:05:49;;;;;;;4.93;1.13;;;3.60;99.90;;;;;;2100078;68;20253;-72
2021/12/02 00:08:33;;;;;;;4.45;1.33;;;3.60;99.90;;;;;;2098031;67;20201;-72
2021/12/02 00:11:20;;;;;;;6.25;1.30;;;3.50;99.90;;;;;;2093362;68;20770;-72
2021/12/02 00:14:11;;;;;;;5.78;1.55;;;3.50;99.90;;;;;;2100680;68;20270;-73
2021/12/02 00:23:22;;;;;;;6.85;1.70;;;3.30;99.90;;;;;;2087970;68;20202;-72
2021/12/02 00:26:11;;;;;;;8.57;1.42;;;3.20;99.90;;;;;;2079066;68;20189;-70
2021/12/02 00:28:55;;;;;;;6.45;1.27;;;3.10;99.90;;;;;;2073039;69;20471;-71
2021/12/02 00:31:40;;;;;;;6.60;2.03;;;3.10;99.90;;;;;;2068834;69;20186;-71
2021/12/02 00:34:25;;;;;;;5.95;1.33;;;3.10;99.90;;;;;;2063134;69;20236;-71
2021/12/02 00:37:09;;;;;;;7.55;1.45;;;3.00;99.90;;;;;;2056566;69;21033;-70
2021/12/02 00:39:52;;;;;;;7.35;2.03;;;3.10;99.90;;;;;;2051695;69;20257;-71
2021/12/02 00:42:37;;;;;;;5.00;1.48;;;3.10;99.90;;;;;;2080594;68;20339;-70
2021/12/02 00:45:22;;;;;;;8.88;1.85;;;3.10;99.90;;;;;;2085216;68;20682;-71
2021/12/02 00:48:08;;;;;;;6.78;1.58;;;3.10;99.90;;;;;;2083713;68;20689;-71
2021/12/02 00:50:56;;;;;;;5.45;1.27;;;3.10;99.90;;;;;;2097966;67;20446;-72
2021/12/02 00:53:45;;;;;;;10.77;1.55;;;3.10;99.90;;;;;;2101014;68;20271;-73
2021/12/02 00:56:27;;;;;;;4.43;2.08;;;3.00;99.90;;;;;;2109374;67;20348;-71
2021/12/02 00:59:09;;;;;;;6.20;1.08;;;3.00;99.90;;;;;;2091545;68;20751;-72
2021/12/02 01:01:53;;;;;;;4.95;2.10;;;3.00;99.90;;;;;;2092058;68;20658;-72
2021/12/02 01:04:38;;;;;;;3.78;1.42;;;3.00;99.90;;;;;;2107553;67;20185;-71
2021/12/02 01:07:22;;;;;;;5.05;1.02;;;3.00;99.90;;;;;;2100525;67;20203;-73
2021/12/02 01:10:05;;;;;;;5.90;1.52;;;3.00;99.90;;;;;;2089139;68;20315;-72
2021/12/02 01:12:49;;;;;;;3.92;0.95;;;3.10;99.90;;;;;;2090515;68;20249;-71
2021/12/02 01:15:35;;;;;;;5.05;0.82;;;3.20;99.90;;;;;;2095970;68;20383;-72
2021/12/02 01:18:20;;;;;;;;;;;3.30;99.90;;;;;;2097276;68;20280;-71
2021/12/02 01:21:05;;;;;;;3.17;0.75;;;3.40;99.90;;;;;;2084971;68;20229;-71
2021/12/02 01:23:54;;;;;;;2.63;0.68;;;3.40;99.90;;;;;;2102700;67;20205;-72
2021/12/02 01:26:37;;;;;;;4.00;0.80;;;3.50;99.90;;;;;;2115202;67;20922;-71
2021/12/02 01:29:21;;;;;;;2.35;0.80;;;3.60;99.90;;;;;;2104910;67;20270;-71
2021/12/02 01:32:07;;;;;;;4.03;0.70;;;3.70;99.90;;;;;;2104177;68;20221;-72
2021/12/02 01:34:50;;;;;;;2.15;1.15;;;3.70;99.90;;;;;;2102193;68;20208;-73
2021/12/02 01:37:32;;;;;;;2.15;0.60;;;3.70;99.90;;;;;;2094847;68;20242;-72
2021/12/02 01:40:16;;;;;;;3.05;0.60;;;3.60;99.90;;;;;;2101999;68;20327;-71
2021/12/02 01:43:01;;;;;;;6.28;0.90;;;3.50;99.90;;;;;;2103009;68;20309;-72
2021/12/02 01:45:44;;;;;;;4.70;0.80;;;3.50;99.90;;;;;;2116966;67;20290;-72
2021/12/02 01:48:33;;;;;;;2.53;0.77;;;3.40;99.90;;;;;;2104821;67;20957;-72
2021/12/02 01:51:20;;;;;;;2.67;0.70;;;3.40;99.90;;;;;;2102408;68;20259;-71
2021/12/02 01:54:25;;;;;;;5.47;1.80;;;3.40;99.90;;;;;;2109890;67;20190;-71
2021/12/02 01:57:08;;;;;;;3.78;1.02;;;3.30;99.90;;;;;;2121275;67;20204;-72
2021/12/02 02:00:01;;;;;;;4.60;1.10;;;3.20;99.90;;;;;;2115964;67;20263;-72
2021/12/02 02:02:43;;;;;;;7.57;1.00;;;3.20;99.90;;;;;;2109854;67;20256;-72
2021/12/02 02:05:27;;;;;;;6.65;1.48;;;3.00;99.90;;;;;;2098067;68;20176;-72
2021/12/02 02:08:33;;;;;;;8.10;1.52;;;3.00;99.90;;;;;;2097219;68;20287;-70
2021/12/02 02:11:16;;;;;;;6.30;1.58;;;3.00;99.90;;;;;;2103844;67;20677;-71
2021/12/02 02:14:05;;;;;;;4.80;1.52;;;3.00;99.90;;;;;;2093585;68;20727;-71
2021/12/02 02:16:51;;;;;;;14.80;1.85;;;2.90;99.90;;;;;;2093409;68;20634;-70
2021/12/02 02:19:37;;;;;;;9.27;1.52;;;2.90;99.90;;;;;;2100998;67;20399;-71
2021/12/02 02:22:23;;;;;;;7.18;1.33;;;2.80;99.90;;;;;;2100267;68;20219;-71
2021/12/02 02:25:12;;;;;;;5.95;1.65;;;2.90;99.90;;;;;;2113938;67;20173;-71
2021/12/02 02:27:56;;;;;;;8.98;1.23;;;2.90;99.90;;;;;;2122006;67;20211;-70
2021/12/02 02:30:40;;;;;;;7.28;1.10;;;2.90;99.90;;;;;;2105359;67;21278;-71
2021/12/02 02:33:25;;;;;;;1.38;0.90;;;3.00;99.90;;;;;;2110892;67;20202;-71
2021/12/02 02:36:10;;;;;;;5.65;1.13;;;3.00;99.90;;;;;;2097090;68;20340;-71
2021/12/02 02:39:00;;;;;;;4.57;0.98;;;3.00;99.90;;;;;;2092296;68;20191;-70
2021/12/02 02:41:44;;;;;;;3.60;1.15;;;3.00;99.90;;;;;;2098403;68;20334;-72
2021/12/02 02:44:30;;;;;;;1.52;0.75;;;3.00;99.90;;;;;;2096689;68;20227;-71
2021/12/02 02:47:16;;;;;;;1.25;0.65;;;3.00;99.90;;;;;;2096724;68;20312;-71
2021/12/02 02:50:02;;;;;;;2.78;1.10;;;3.10;99.90;;;;;;2088697;68;20168;-71
2021/12/02 02:52:46;;;;;;;6.25;1.67;;;3.10;99.90;;;;;;2089457;68;20205;-70
2021/12/02 02:55:30;;;;;;;3.58;1.50;;;3.10;99.90;;;;;;2089731;68;20743;-69
2021/12/02 02:58:51;;;;;;;2.50;1.33;;;3.10;99.90;;;;;;2082759;68;20168;-70
2021/12/02 03:01:33;;;;;;;2.88;1.23;;;3.10;99.90;;;;;;2081410;68;20182;-70
2021/12/02 03:04:35;;;;;;;2.53;0.77;;;3.10;99.90;;;;;;2092571;68;20270;-70
2021/12/02 03:07:25;;;;;;;3.33;0.63;;;3.10;99.90;;;;;;2089455;68;20187;-68
2021/12/02 03:13:12;;;;;;;0.77;0.52;;;2.90;99.90;;;;;;2083409;68;20759;-69
2021/12/02 03:18:55;;;;;;;0.57;0.30;;;2.70;99.90;;;;;;2106387;67;20303;-70
2021/12/02 03:21:40;;;;;;;;;;;2.50;99.90;;;;;;2090454;68;20300;-70
2021/12/02 03:24:26;;;;;;;1.23;0.20;;;2.40;99.90;;;;;;2096896;67;20584;-70
2021/12/02 03:27:11;;;;;;;1.70;0.38;;;2.20;99.90;;;;;;2105780;67;20182;-70
2021/12/02 03:29:54;;;;;;;2.88;1.00;;;2.10;99.90;;;;;;2104661;68;20367;-70
2021/12/02 03:32:41;;;;;;;0.28;0.20;;;1.90;99.90;;;;;;2104322;67;20278;-71
2021/12/02 03:35:22;;;;;;;1.60;0.20;;;1.90;99.90;;;;;;2096977;68;20334;-71
2021/12/02 03:38:04;;;;;;;1.70;0.22;;;1.70;99.90;;;;;;2118393;67;20340;-70
2021/12/02 03:40:46;;;;;;;0.50;0.20;;;1.70;99.90;;;;;;2118540;67;20322;-70
2021/12/02 03:43:35;;;;;;;1.42;0.30;;;1.70;99.90;;;;;;2123427;67;20228;-71
2021/12/02 03:46:23;;;;;;;1.48;0.28;;;1.60;99.90;;;;;;2113922;67;20180;-70
2021/12/02 03:49:08;;;;;;;2.22;0.65;;;1.60;99.90;;;;;;2110784;67;20177;-71
2021/12/02 03:51:49;;;;;;;1.27;0.88;;;1.60;99.90;;;;;;2115775;67;20341;-70
2021/12/02 03:54:32;;;;;;;1.45;0.55;;;1.60;99.90;;;;;;2104738;67;20321;-71
2021/12/02 03:57:18;;;;;;;0.95;0.40;;;1.60;99.90;;;;;;2106690;67;20334;-70
2021/12/02 04:00:04;;;;;;;1.52;0.30;;;1.80;99.90;;;;;;2118812;67;20330;-71
2021/12/02 04:02:45;;;;;;;0.82;0.35;;;1.50;99.90;;;;;;2096823;68;20259;-70
2021/12/02 04:05:29;;;;;;;3.53;0.70;;;1.40;99.90;;;;;;2080499;68;20227;-69
2021/12/02 04:08:13;;;;;;;;;;;1.40;99.90;;;;;;2072485;69;20234;-70
2021/12/02 04:11:10;;;;;;;3.22;0.50;;;1.30;99.90;;;;;;2068428;69;20601;-71
2021/12/02 04:14:17;;;;;;;1.55;0.38;;;1.20;99.90;;;;;;2071806;69;20740;-70
2021/12/02 04:17:02;;;;;;;1.60;0.80;;;1.20;99.90;;;;;;2073755;69;20248;-70
2021/12/02 04:19:45;;;;;;;2.80;0.82;;;1.20;99.90;;;;;;2087564;68;20231;-71
2021/12/02 04:22:30;;;;;;;1.67;0.47;;;1.20;99.90;;;;;;2079085;68;20223;-70
2021/12/02 04:25:13;;;;;;;1.75;0.50;;;1.20;99.90;;;;;;2092341;68;20349;-70
2021/12/02 04:27:54;;;;;;;0.52;0.20;;;1.30;99.90;;;;;;2097161;68;20231;-69
2021/12/02 04:30:37;;;;;;;1.52;0.40;;;1.40;99.90;;;;;;2088418;68;20387;-70
2021/12/02 04:33:18;;;;;;;2.45;0.60;;;1.50;99.90;;;;;;2087156;68;20363;-70
2021/12/02 04:36:01;;;;;;;1.05;0.60;;;1.60;99.90;;;;;;2080155;68;20298;-70
2021/12/02 04:38:43;;;;;;;1.85;0.40;;;1.60;99.90;;;;;;2090415;68;20735;-69
2021/12/02 04:41:25;;;;;;;2.25;0.45;;;1.70;99.90;;;;;;2090524;68;20238;-70
2021/12/02 04:44:06;;;;;;;2.92;0.60;;;1.70;99.90;;;;;;2080190;68;20274;-70
2021/12/02 04:46:50;;;;;;;3.33;0.75;;;1.80;99.90;;;;;;2070109;69;20391;-70
2021/12/02 04:49:34;;;;;;;1.27;0.57;;;1.80;99.90;;;;;;2083148;68;20199;-71
2021/12/02 04:52:19;;;;;;;3.97;0.80;;;1.90;99.90;;;;;;2083504;68;20362;-70
2021/12/02 04:55:00;;;;;;;4.00;0.80;;;2.00;99.90;;;;;;2097012;68;20366;-69
2021/12/02 04:57:42;;;;;;;4.97;0.70;;;2.00;99.90;;;;;;2090316;68;20199;-69
2021/12/02 05:00:25;;;;;;;2.13;0.50;;;2.00;99.90;;;;;;2090304;68;20167;-69
2021/12/02 05:03:10;;;;;;;1.77;0.43;;;2.00;99.90;;;;;;2101985;68;20186;-69
2021/12/02 05:05:52;;;;;;;3.17;1.02;;;2.00;99.90;;;;;;2097658;68;20162;-69
2021/12/02 05:08:39;;;;;;;2.90;0.63;;;1.90;99.90;;;;;;2097207;68;20239;-70
2021/12/02 05:11:21;;;;;;;1.38;0.60;;;1.90;99.90;;;;;;2097365;67;20528;-70
2021/12/02 05:14:02;;;;;;;2.75;0.88;;;1.90;99.90;;;;;;2115866;67;20210;-70
2021/12/02 05:16:45;;;;;;;1.75;0.60;;;1.90;99.90;;;;;;2112561;67;20334;-69
2021/12/02 05:19:30;;;;;;;1.90;0.70;;;1.90;99.90;;;;;;2113013;67;20315;-69
2021/12/02 05:22:13;;;;;;;2.63;0.47;;;1.90;99.90;;;;;;2110974;67;20177;-68
2021/12/02 05:24:57;;;;;;;3.17;1.05;;;1.90;99.90;;;;;;2104850;67;20309;-68
2021/12/02 05:27:42;;;;;;;1.13;0.88;;;2.00;99.90;;;;;;2092574;68;20313;-69
2021/12/02 05:30:24;;;;;;;3.58;0.65;;;2.00;99.90;;;;;;2087289;68;20367;-68
2021/12/02 05:33:07;;;;;;;7.68;0.90;;;1.90;99.90;;;;;;2093354;68;20334;-68
2021/12/02 05:35:51;;;;;;;5.68;0.60;;;1.90;99.90;;;;;;2093862;68;20259;-68
2021/12/02 05:38:33;;;;;;;5.60;1.00;;;1.80;99.90;;;;;;2083487;68;20188;-70
2021/12/02 05:41:16;;;;;;;4.65;1.20;;;1.70;99.90;;;;;;2077890;68;20292;-69
2021/12/02 05:44:00;;;;;;;1.67;1.00;;;1.70;99.90;;;;;;2075321;68;20199;-69
2021/12/02 05:46:44;;;;;;;1.00;0.57;;;1.70;99.90;;;;;;2076733;68;20685;-68
2021/12/02 05:49:27;;;;;;;2.08;0.75;;;1.70;99.90;;;;;;2082493;68;20360;-68
2021/12/02 05:52:10;;;;;;;4.53;0.88;;;1.60;99.90;;;;;;2083343;68;20203;-68
2021/12/02 05:54:54;;;;;;;1.23;0.73;;;1.60;99.90;;;;;;2081811;68;20703;-69
2021/12/02 05:57:36;;;;;;;2.42;0.65;;;1.60;99.90;;;;;;2083021;68;20740;-67
2021/12/02 06:00:18;;;;;;;1.85;0.60;;;1.60;99.90;;;;;;2095084;68;20271;-69
2021/12/02 06:03:00;;;;;;;2.58;0.77;;;1.60;99.90;;;;;;2089779;68;20629;-69
2021/12/02 06:05:46;;;;;;;3.75;0.70;;;1.60;99.90;;;;;;2096720;68;20404;-69
2021/12/02 06:08:30;;;;;;;3.15;1.00;;;1.60;99.90;;;;;;2107269;67;20363;-68
2021/12/02 06:11:12;;;;;;;2.35;1.25;;;1.60;99.90;;;;;;2117232;67;20823;-69
2021/12/02 06:13:54;;;;;;;3.67;1.38;;;1.60;99.90;;;;;;2117203;67;20247;-69
2021/12/02 06:16:36;;;;;;;7.53;1.20;;;1.60;99.90;;;;;;2117060;67;20266;-68
2021/12/02 06:19:18;;;;;;;1.40;0.68;;;1.60;99.90;;;;;;2110707;67;20669;-70
2021/12/02 06:22:00;;;;;;;3.47;1.50;;;1.60;99.90;;;;;;2110116;67;20709;-69
2021/12/02 06:27:45;;;;;;;6.50;1.58;;;1.60;99.90;;;;;;2109759;67;20202;-67
2021/12/02 06:30:30;;;;;;;3.53;1.20;;;1.60;99.90;;;;;;2096342;68;20284;-68
2021/12/02 06:33:12;;;;;;;2.70;1.40;;;1.60;99.90;;;;;;2090421;68;20259;-67
2021/12/02 06:35:54;;;;;;;2.33;0.80;;;1.70;99.90;;;;;;2124423;67;20239;-68
2021/12/02 06:38:36;;;;;;;2.78;1.02;;;1.70;99.90;;;;;;2117506;67;20165;-67
2021/12/02 06:41:18;;;;;;;4.13;1.10;;;1.70;99.90;;;;;;2124745;67;20259;-69
2021/12/02 06:44:00;;;;;;;3.00;0.80;;;1.70;99.90;;;;;;2132073;67;20794;-69
2021/12/02 06:46:42;;;;;;;2.42;1.05;;;1.80;99.90;;;;;;2111208;67;21182;-71
2021/12/02 06:49:24;;;;;;;5.50;0.90;;;1.80;99.90;;;;;;2111807;67;20761;-68
2021/12/02 06:52:11;;;;;;;3.03;0.82;;;1.80;99.90;;;;;;2118859;67;20318;-68
2021/12/02 06:54:55;;;;;;;1.80;0.80;;;1.80;99.90;;;;;;2112546;67;20192;-69
2021/12/02 06:57:37;;;;;;;5.03;0.95;;;1.70;99.90;;;;;;2117439;67;20168;-68
2021/12/02 07:00:21;;;;;;;8.18;1.42;;;1.80;99.90;;;;;;2118448;67;20319;-68
2021/12/02 07:03:03;;;;;;;4.30;1.55;;;1.80;99.90;;;;;;2118620;67;20317;-69
2021/12/02 07:05:44;;;;;;;4.15;2.05;;;1.80;99.90;;;;;;2104379;68;20281;-69
2021/12/02 07:08:30;;;;;;;2.88;1.45;;;1.70;99.90;;;;;;2113655;67;20342;-68
2021/12/02 07:11:12;;;;;;;3.08;1.42;;;1.70;99.90;;;;;;2114477;67;20240;-70
2021/12/02 07:14:02;;;;;;;4.40;1.50;;;1.60;99.90;;;;;;2118197;67;20355;-69
2021/12/02 07:16:46;;;;;;;4.07;1.52;;;1.60;99.90;;;;;;2098216;68;20812;-70
2021/12/02 07:19:29;;;;;;;4.55;1.60;;;1.50;99.90;;;;;;2083830;68;20263;-69
2021/12/02 07:22:15;;;;;;;1.67;1.15;;;1.30;99.90;;;;;;2090805;68;20340;-70
2021/12/02 07:25:04;;;;;;;4.88;1.88;;;1.30;99.90;;;;;;2090581;68;20238;-69
2021/12/02 07:27:47;;;;;;;5.38;2.22;;;1.20;99.90;;;;;;2072864;68;20355;-70
2021/12/02 07:30:29;;;;;;;10.02;2.95;;;1.20;99.90;;;;;;2070802;69;20620;-69
2021/12/02 07:33:13;;;;;;;6.50;1.77;;;1.20;99.90;;;;;;2076668;68;20317;-69
2021/12/02 07:35:55;;;;;;;9.32;2.08;;;1.30;99.90;;;;;;2084115;68;20409;-69
2021/12/02 07:38:40;;;;;;;8.60;2.53;;;1.30;99.90;;;;;;2090482;68;20641;-70
2021/12/02 07:41:42;;;;;;;3.90;2.15;;;1.30;99.90;;;;;;2087264;68;20371;-70
2021/12/02 07:44:23;;;;;;;8.90;1.88;;;1.20;99.90;;;;;;2089442;68;20172;-70
2021/12/02 07:47:07;;;;;;;6.25;2.33;;;1.20;99.90;;;;;;2096609;68;20411;-71
2021/12/02 07:49:49;;;;;;;7.07;2.80;;;1.20;99.90;;;;;;2098852;68;20229;-71
2021/12/02 07:52:34;;;;;;;6.03;3.00;;;1.20;99.90;;;;;;2107322;67;20691;-70
2021/12/02 07:55:20;;;;;;;4.82;2.63;;;1.20;99.90;;;;;;2116829;67;20188;-72
2021/12/02 07:58:06;;;;;;;4.57;2.72;;;1.30;99.90;;;;;;2112344;67;20351;-72
2021/12/02 08:00:48;;;;;;;10.02;3.00;;;1.20;99.90;;;;;;2112866;67;20181;-71
2021/12/02 08:03:30;;;;;;;7.47;3.40;;;1.10;99.90;;;;;;2112827;67;20198;-71
2021/12/02 08:06:16;;;;;;;5.97;3.75;;;1.10;99.90;;;;;;2105463;67;20386;-73
2021/12/02 08:08:58;;;;;;;9.05;4.57;;;1.20;99.90;;;;;;2097704;68;20299;-72
2021/12/02 08:11:40;;;;;;;11.02;6.32;;;1.10;99.90;;;;;;2093225;67;20375;-73
2021/12/02 08:14:22;;;;;;;10.68;6.40;;;1.20;99.90;;;;;;2089122;68;20187;-74
2021/12/02 08:17:06;;;;;;;8.07;5.47;;;1.20;99.90;;;;;;2082867;68;20314;-72
2021/12/02 08:19:50;;;;;;;11.77;6.43;;;1.30;99.90;;;;;;2090637;67;20354;-69
2021/12/02 08:22:34;;;;;;;12.00;6.60;;;1.40;99.90;;;;;;2103820;68;20178;-71
2021/12/02 08:25:20;;;;;;;;;;;1.50;99.90;;;;;;2110737;67;20205;-73
2021/12/02 08:28:04;;;;;;;13.13;6.80;;;1.60;99.90;;;;;;2094303;68;20459;-70
2021/12/02 08:30:46;;;;;;;8.95;6.10;;;1.70;99.90;;;;;;2104987;67;20380;-72
2021/12/02 08:33:28;;;;;;;8.23;6.07;;;1.80;99.90;;;;;;2089790;68;20263;-73
2021/12/02 08:36:11;;;;;;;12.73;6.50;;;2.00;99.90;;;;;;2085387;68;20258;-72
2021/12/02 08:38:58;;;;;;;7.40;4.75;;;2.10;99.90;;;;;;2083303;68;20388;-72
2021/12/02 08:41:44;;;;;;;7.80;4.95;;;2.30;99.90;;;;;;2096838;68;20287;-71
2021/12/02 08:44:26;;;;;;;9.63;6.07;;;2.40;99.90;;;;;;2097134;68;20469;-71
2021/12/02 08:47:09;;;;;;;14.30;7.50;;;2.60;99.90;;;;;;2082096;68;20857;-69
2021/12/02 08:49:54;;;;;;;8.20;6.00;;;2.50;99.90;;;;;;2081671;68;20175;-71
2021/12/02 08:52:36;;;;;;;8.60;4.53;;;2.60;99.90;;;;;;2082464;68;20405;-69
2021/12/02 08:55:21;;;;;;;4.38;2.78;;;2.60;99.90;;;;;;2063301;69;20385;-72
2021/12/02 08:58:07;;;;;;;5.78;3.33;;;2.60;99.90;;;;;;2069050;68;20378;-70
2021/12/02 09:00:50;;;;;;;4.85;2.33;;;2.60;99.90;;;;;;2075959;68;20200;-71
2021/12/02 09:03:33;;;;;;;2.55;1.60;;;2.60;99.90;;;;;;2083415;68;20201;-70
2021/12/02 09:06:21;;;;;;;4.88;1.58;;;2.60;99.90;;;;;;2082717;68;20677;-70
2021/12/02 09:09:05;;;;;;;2.55;1.25;;;2.60;99.90;;;;;;2065415;69;20645;-70
2021/12/02 09:11:47;;;;;;;3.95;1.45;;;2.70;99.90;;;;;;2064266;69;20334;-72
2021/12/02 09:14:29;;;;;;;4.53;2.00;;;2.60;99.90;;;;;;2077215;68;20283;-71
2021/12/02 09:17:11;;;;;;;2.90;1.75;;;2.60;99.90;;;;;;2069655;69;20988;-71
2021/12/02 09:19:53;;;;;;;3.40;1.92;;;2.60;99.90;;;;;;2069233;69;20233;-72
2021/12/02 09:22:36;;;;;;;5.05;2.03;;;2.50;99.90;;;;;;2082493;68;20317;-70
2021/12/02 09:25:18;;;;;;;4.47;1.38;;;2.30;99.90;;;;;;2089683;68;20409;-71
2021/12/02 09:28:03;;;;;;;4.18;1.95;;;2.30;99.90;;;;;;2082927;68;20210;-70
2021/12/02 09:30:46;;;;;;;6.78;2.22;;;2.30;99.90;;;;;;2089655;68;20247;-71
2021/12/02 09:33:28;;;;;;;3.80;2.30;;;2.30;99.90;;;;;;2088491;68;20575;-72
2021/12/02 09:36:10;;;;;;;2.38;1.80;;;2.30;99.90;;;;;;2096760;68;20826;-71
2021/12/02 09:38:51;;;;;;;4.63;1.60;;;2.40;99.90;;;;;;2106700;67;20327;-73
2021/12/02 09:41:35;;;;;;;3.30;2.10;;;2.50;99.90;;;;;;2098066;68;20344;-71
2021/12/02 09:44:22;;;;;;;11.18;3.38;;;2.70;99.90;;;;;;2113303;67;20688;-72
2021/12/02 09:47:05;;;;;;;6.75;4.18;;;2.90;99.90;;;;;;2119233;67;20177;-72
2021/12/02 09:49:50;;;;;;;3.72;2.22;;;3.00;99.90;;;;;;2124233;67;20309;-73
2021/12/02 09:52:39;;;;;;;3.83;2.00;;;3.10;99.90;;;;;;2135565;66;20201;-73
2021/12/02 09:58:26;;;;;;;3.50;1.48;;;2.90;99.90;;;;;;2152523;66;20296;-70
2021/12/02 10:01:19;;;;;;;2.33;1.25;;;2.70;99.90;;;;;;2143512;66;20753;-73
2021/12/02 10:04:13;;;;;;;3.30;1.00;;;2.80;99.90;;;;;;2115777;67;20406;-74
2021/12/02 10:10:32;;;;;;;2.50;0.75;;;2.20;99.90;;;;;;2100346;67;20720;-72
2021/12/02 10:13:42;;;;;;;2.70;0.88;;;2.10;99.90;;;;;;2108885;67;20438;-72
2021/12/02 10:16:35;;;;;;;1.98;0.73;;;2.00;99.90;;;;;;2109183;67;20323;-73
2021/12/02 10:19:27;;;;;;;2.78;0.93;;;2.00;99.90;;;;;;2100739;67;20299;-72
2021/12/02 10:22:23;;;;;;;1.05;0.65;;;2.10;99.90;;;;;;2098678;67;20336;-71
2021/12/02 10:25:08;;;;;;;2.15;0.90;;;2.20;99.90;;;;;;2110593;67;20709;-71
2021/12/02 10:28:09;;;;;;;1.85;0.80;;;2.30;99.90;;;;;;2110533;67;20288;-72
2021/12/02 10:30:55;;;;;;;2.83;1.27;;;2.50;99.90;;;;;;2102730;67;20170;-72
2021/12/02 10:33:43;;;;;;;1.90;1.27;;;2.60;99.90;;;;;;2095723;68;20303;-72
2021/12/02 10:36:43;;;;;;;1.83;1.08;;;2.70;99.90;;;;;;2110585;67;20717;-73
2021/12/02 10:39:27;;;;;;;1.80;1.13;;;2.70;99.90;;;;;;2111745;67;20246;-74
2021/12/02 10:42:20;;;;;;;1.88;0.93;;;3.20;99.90;;;;;;2108175;67;20347;-72
2021/12/02 10:45:04;;;;;;;2.13;1.10;;;3.00;99.90;;;;;;2111173;67;20177;-72
2021/12/02 10:48:08;;;;;;;1.63;1.13;;;2.60;99.90;;;;;;2102984;68;20257;-71
2021/12/02 10:50:50;;;;;;;1.25;0.73;;;2.60;99.90;;;;;;2109250;67;20721;-72
2021/12/02 10:53:32;;;;;;;3.30;1.27;;;2.60;99.90;;;;;;2112087;67;20229;-73
2021/12/02 10:56:29;;;;;;;2.05;1.15;;;2.50;99.90;;;;;;2102766;67;20311;-72
2021/12/02 10:59:31;;;;;;;1.70;0.95;;;2.50;99.90;;;;;;2089195;68;20341;-73
2021/12/02 11:02:35;;;;;;;2.58;0.93;;;2.50;99.90;;;;;;2074967;68;20435;-74
2021/12/02 11:05:38;;;;;;;2.08;1.00;;;2.40;99.90;;;;;;2088927;68;20637;-74
2021/12/02 11:08:23;;;;;;;3.33;0.70;;;2.90;99.90;;;;;;2088252;68;20204;-73
2021/12/02 11:11:21;;;;;;;0.77;0.50;;;2.40;99.90;;;;;;2100406;68;20222;-69
2021/12/02 11:14:21;;;;;;;2.08;0.70;;;2.40;99.90;;;;;;2108695;67;20347;-69
2021/12/02 11:17:14;;;;;;;1.58;0.82;;;2.40;99.90;;;;;;2110160;67;20370;-69
2021/12/02 11:19:58;;;;;;;2.13;1.05;;;2.40;99.90;;;;;;2096369;68;20327;-70
2021/12/02 11:22:45;;;;;;;2.00;1.20;;;2.40;99.90;;;;;;2086600;68;20215;-72
2021/12/02 11:25:27;;;;;;;3.38;0.80;;;2.50;99.90;;;;;;2087921;68;20660;-71
2021/12/02 11:28:32;;;;;;;2.28;0.98;;;2.50;99.90;;;;;;2081795;68;20465;-77
2021/12/02 11:31:19;;;;;;;1.88;1.10;;;2.60;99.90;;;;;;2088525;68;20287;-73
2021/12/02 11:34:10;;;;;;;3.20;1.33;;;2.60;99.90;;;;;;2092502;67;20267;-74
2021/12/02 11:37:04;;;;;;;1.80;0.85;;;3.00;99.90;;;;;;2099470;68;20875;-72
2021/12/02 11:39:47;;;;;;;1.65;0.70;;;2.50;99.90;;;;;;2105487;67;20229;-74
2021/12/02 11:42:30;;;;;;;3.30;0.70;;;2.40;99.90;;;;;;2108750;67;20363;-71
2021/12/02 11:45:14;;;;;;;1.38;0.75;;;2.30;99.90;;;;;;2104987;67;20472;-73
2021/12/02 11:47:56;;;;;;;2.90;1.10;;;2.20;99.90;;;;;;2108283;67;20739;-75
2021/12/02 11:50:39;;;;;;;3.33;0.95;;;2.20;99.90;;;;;;2091976;68;20364;-73
2021/12/02 11:53:26;;;;;;;2.25;0.95;;;2.30;99.90;;;;;;2095235;68;20187;-74
2021/12/02 11:56:14;;;;;;;2.33;0.80;;;2.00;99.90;;;;;;2108408;67;20281;-76
2021/12/02 11:58:57;;;;;;;2.53;1.23;;;1.90;99.90;;;;;;2109607;67;20597;-74
2021/12/02 12:01:42;;;;;;;3.63;1.50;;;1.90;99.90;;;;;;2106432;67;20367;-73
2021/12/02 12:04:26;;;;;;;3.80;1.73;;;1.80;99.90;;;;;;2100144;68;20178;-72
2021/12/02 12:07:16;;;;;;;3.70;1.52;;;1.90;99.90;;;;;;2099191;68;20652;-73
2021/12/02 12:10:23;;;;;;;4.25;1.10;;;2.00;99.90;;;;;;2102879;67;20353;-73
2021/12/02 12:13:21;;;;;;;1.83;1.10;;;2.50;99.90;;;;;;2096948;68;20761;-74
2021/12/02 12:16:19;;;;;;;1.30;0.88;;;2.90;99.90;;;;;;2101260;67;20597;-72
2021/12/02 12:19:29;;;;;;;2.03;0.88;;;3.20;99.90;;;;;;2080214;68;20233;-72
2021/12/02 12:22:23;;;;;;;0.77;0.50;;;3.60;99.90;;;;;;2099092;67;20320;-73
2021/12/02 12:25:08;;;;;;;0.77;0.65;;;3.70;99.90;;;;;;2110761;67;20378;-74
2021/12/02 12:28:16;;;;;;;2.17;0.98;;;3.70;99.90;;;;;;2110536;67;20356;-72
2021/12/02 12:31:05;;;;;;;1.63;0.80;;;3.40;99.90;;;;;;2097004;67;20337;-71
2021/12/02 12:33:48;;;;;;;1.45;0.82;;;3.20;99.90;;;;;;2105254;67;20377;-71
2021/12/02 12:36:45;;;;;;;2.60;0.70;;;2.90;99.90;;;;;;2112380;67;20340;-72
2021/12/02 12:39:32;;;;;;;1.58;0.73;;;2.90;99.90;;;;;;2131046;66;20646;-73
2021/12/02 12:42:23;;;;;;;2.47;0.70;;;3.30;99.90;;;;;;2145048;66;20187;-73
2021/12/02 12:45:10;;;;;;;0.73;0.30;;;4.00;99.90;;;;;;2130245;67;20250;-72
2021/12/02 12:47:55;;;;;;;0.60;0.40;;;4.90;99.90;;;;;;2116099;67;20200;-73
2021/12/02 12:50:46;;;;;;;0.70;0.50;;;5.50;99.90;;;;;;2127131;67;20295;-72
2021/12/02 12:53:30;;;;;;;0.65;0.52;;;6.30;99.90;;;;;;2130141;67;20292;-72
2021/12/02 12:56:15;;;;;;;0.38;0.38;;;6.90;99.90;;;;;;2120678;67;20287;-75
2021/12/02 12:59:11;;;;;;;1.15;1.00;;;7.50;99.90;;;;;;2117494;67;20321;-73
2021/12/02 13:02:19;;;;;;;1.27;0.80;;;8.00;99.90;;;;;;2112040;67;20374;-72
2021/12/02 13:05:02;;;;;;;0.75;0.60;;;8.50;99.90;;;;;;2089833;68;20172;-74
2021/12/02 13:08:23;;;;;;;0.88;0.40;;;8.90;99.90;;;;;;2087256;68;20770;-75
2021/12/02 13:11:16;;;;;;;0.70;0.40;;;9.10;99.90;;;;;;2095617;68;20456;-75
2021/12/02 13:14:03;;;;;;;1.23;0.40;;;8.80;99.90;;;;;;2091490;68;20242;-72
2021/12/02 13:16:48;;;;;;;1.05;0.60;;;8.70;99.90;;;;;;2094982;68;20243;-74
2021/12/02 13:19:33;;;;;;;0.55;0.30;;;8.50;99.90;;;;;;2104415;67;20166;-73
2021/12/02 13:22:16;;;;;;;1.00;0.68;;;8.50;99.90;;;;;;2111989;67;20640;-73
2021/12/02 13:25:00;;;;;;;0.47;0.25;;;8.30;99.90;;;;;;2114443;67;20389;-73
2021/12/02 13:27:45;;;;;;;2.10;0.50;;;8.20;99.90;;;;;;2126834;67;20172;-71
2021/12/02 13:30:30;;;;;;;0.32;0.20;;;8.10;99.90;;;;;;2102691;67;20311;-71
2021/12/02 13:33:19;;;;;;;1.10;0.30;;;8.20;99.90;;;;;;2094916;68;20332;-72
2021/12/02 13:36:05;;;;;;;0.60;0.30;;;8.20;99.90;;;;;;2092983;68;20204;-72
2021/12/02 13:39:08;;;;;;;5.00;1.20;;;7.90;99.90;;;;;;2099822;68;20219;-72
2021/12/02 13:42:06;;;;;;;1.48;0.40;;;7.70;99.90;;;;;;2094039;68;20710;-71
2021/12/02 13:44:52;;;;;;;1.52;0.28;;;7.30;99.90;;;;;;2096803;68;20754;-71
2021/12/02 13:47:42;;;;;;;1.98;0.50;;;7.50;99.90;;;;;;2106106;67;20199;-73
2021/12/02 13:50:35;;;;;;;1.25;0.40;;;6.60;99.90;;;;;;2109169;67;20214;-71
2021/12/02 13:53:18;;;;;;;2.72;0.60;;;6.20;99.90;;;;;;2103685;67;20418;-71
2021/12/02 13:56:01;;;;;;;1.02;0.45;;;5.90;99.90;;;;;;2097304;68;20264;-72
2021/12/02 13:58:45;;;;;;;;;;;5.50;99.90;;;;;;2097259;68;20408;-72
2021/12/02 14:01:27;;;;;;;0.43;0.30;;;5.20;99.90;;;;;;2099022;67;20133;-71
2021/12/02 14:04:10;;;;;;;2.97;0.50;;;5.00;99.90;;;;;;2100818;67;20348;-71
2021/12/02 14:07:10;;;;;;;;;;;4.90;99.90;;;;;;2098353;67;20199;-69
2021/12/02 14:09:58;;;;;;;1.33;0.63;;;4.60;99.90;;;;;;2103659;67;20655;-72
2021/12/02 14:12:54;;;;;;;2.47;0.50;;;4.40;99.90;;;;;;2107892;67;20306;-70
2021/12/02 14:15:43;;;;;;;0.68;0.55;;;4.30;99.90;;;;;;2100447;67;20187;-73
2021/12/02 14:18:26;;;;;;;1.63;0.70;;;4.10;99.90;;;;;;2103529;67;20371;-68
2021/12/02 14:21:11;;;;;;;2.65;0.45;;;4.00;99.90;;;;;;2112449;67;20284;-71
2021/12/02 14:23:55;;;;;;;1.60;0.30;;;4.60;99.90;;;;;;2112809;67;20727;-70
2021/12/02 14:26:38;;;;;;;0.75;0.40;;;4.30;99.90;;;;;;2110059;67;20678;-71
2021/12/02 14:29:25;;;;;;;1.20;0.63;;;3.60;99.90;;;;;;2105440;67;20195;-73
2021/12/02 14:32:10;;;;;;;2.30;0.68;;;3.50;99.90;;;;;;2106792;67;20225;-71
2021/12/02 14:35:27;;;;;;;1.23;0.68;;;3.50;99.90;;;;;;2109380;67;20344;-70
2021/12/02 14:38:24;;;;;;;2.65;0.82;;;3.40;99.90;;;;;;2096519;68;20355;-70
2021/12/02 14:41:15;;;;;;;;;;;3.40;99.90;;;;;;2101549;67;20355;-71
2021/12/02 14:44:15;;;;;;;1.08;0.52;;;3.40;99.90;;;;;;2107699;67;20212;-72
2021/12/02 14:46:57;;;;;;;1.25;0.52;;;3.40;99.90;;;;;;2096341;68;20723;-71
2021/12/02 14:49:43;;;;;;;2.80;0.70;;;3.40;99.90;;;;;;2108402;67;20176;-72
2021/12/02 14:52:35;;;;;;;1.27;0.70;;;3.40;99.90;;;;;;2125045;67;20268;-72
2021/12/02 14:55:23;;;;;;;3.65;0.80;;;3.30;99.90;;;;;;2112532;67;20189;-70
2021/12/02 14:58:12;;;;;;;4.65;0.82;;;3.20;99.90;;;;;;2104382;67;20243;-70
2021/12/02 15:01:14;;;;;;;2.17;0.50;;;3.10;99.90;;;;;;2110361;67;20173;-72